Time;durP1;ratioP1;P1;durP2;ratioP2;P2;SDS_P1;SDS_P2;PMS_P1;PMS_P2;Temp;Humidity;BMP_temperature;BMP_pressure;BME280_temperature;BME280_humidity;BME280_pressure;Samples;Min_cycle;Max_cycle;Signal;HPM_P1;HPM_P2
2023/02/09 00:01:06;;;;;;;21.20;11.70;;;;;;;-3.61;66.12;99916.81;5029639;28;20029;-74
2023/02/09 00:03:32;;;;;;;19.15;12.93;;;;;;;-3.63;66.63;99903.78;5063143;28;20069;-74
2023/02/09 00:05:59;;;;;;;17.33;12.68;;;;;;;-3.51;66.13;99912.56;5013387;28;20055;-74
2023/02/09 00:08:25;;;;;;;17.85;12.98;;;;;;;-3.57;66.00;99905.13;5045720;28;20061;-74
2023/02/09 00:10:50;;;;;;;17.17;12.45;;;;;;;-3.55;65.35;99897.94;5013363;28;20519;-74
2023/02/09 00:13:21;;;;;;;18.02;13.07;;;;;;;-3.69;66.32;99908.66;5031081;28;20041;-73
2023/02/09 00:15:56;;;;;;;21.75;14.23;;;;;;;-3.60;65.68;99905.34;5049824;28;20040;-73
2023/02/09 00:18:23;;;;;;;17.95;12.02;;;;;;;-3.53;65.53;99901.31;5017357;28;20077;-74
2023/02/09 00:21:03;;;;;;;18.85;12.70;;;;;;;-3.62;65.74;99907.25;5046407;28;20037;-74
2023/02/09 00:23:29;;;;;;;20.90;13.55;;;;;;;-3.61;65.84;99898.38;5042800;28;20075;-74
2023/02/09 00:25:58;;;;;;;17.92;12.70;;;;;;;-3.66;66.29;99887.34;5042713;28;20021;-73
2023/02/09 00:28:24;;;;;;;20.20;12.63;;;;;;;-3.63;65.31;99892.41;5054534;28;20415;-73
2023/02/09 00:30:50;;;;;;;19.38;13.13;;;;;;;-3.70;66.07;99875.38;5054951;28;20411;-73
2023/02/09 00:33:16;;;;;;;20.40;12.00;;;;;;;-3.64;66.05;99880.19;5054643;28;20033;-73
2023/02/09 00:35:42;;;;;;;17.60;12.38;;;;;;;-3.65;66.25;99889.03;5070036;28;20027;-73
2023/02/09 00:38:08;;;;;;;19.33;12.75;;;;;;;-3.71;66.00;99894.78;5052436;28;20510;-73
2023/02/09 00:40:34;;;;;;;17.63;14.23;;;;;;;-3.74;65.56;99879.19;5053350;28;20021;-73
2023/02/09 00:42:59;;;;;;;17.88;12.63;;;;;;;-3.67;65.38;99891.78;5069967;28;20542;-73
2023/02/09 00:45:25;;;;;;;19.25;12.27;;;;;;;-3.62;65.23;99889.63;5053414;28;20029;-73
2023/02/09 00:47:51;;;;;;;15.90;12.02;;;;;;;-3.75;65.64;99890.66;5048258;28;20453;-73
2023/02/09 00:50:16;;;;;;;21.05;14.23;;;;;;;-3.99;67.00;99892.47;5033225;28;20053;-74
2023/02/09 00:52:41;;;;;;;22.92;12.07;;;;;;;-3.97;67.02;99893.19;5033181;28;20128;-75
2023/02/09 00:55:07;;;;;;;20.77;13.45;;;;;;;-4.14;67.10;99897.03;5033114;28;20402;-74
2023/02/09 00:57:33;;;;;;;19.83;13.60;;;;;;;-4.16;67.88;99887.56;5032227;28;20059;-74
2023/02/09 00:59:58;;;;;;;19.15;13.32;;;;;;;-4.18;67.80;99894.75;5034562;28;20454;-74
2023/02/09 01:02:24;;;;;;;18.92;13.48;;;;;;;-4.11;67.15;99882.84;5032990;28;20041;-73
2023/02/09 01:04:49;;;;;;;20.38;12.98;;;;;;;-4.22;67.49;99879.16;5029679;28;20084;-74
2023/02/09 01:07:14;;;;;;;18.95;13.55;;;;;;;-4.03;66.97;99885.72;5063333;28;20033;-73
2023/02/09 01:09:40;;;;;;;19.70;14.38;;;;;;;-4.21;67.10;99896.66;5043850;28;20438;-74
2023/02/09 01:12:05;;;;;;;19.55;14.20;;;;;;;-4.27;67.19;99870.78;5069454;28;20100;-74
2023/02/09 01:14:31;;;;;;;20.15;13.13;;;;;;;-4.20;67.68;99890.41;5052740;28;20021;-74
2023/02/09 01:16:57;;;;;;;20.98;14.38;;;;;;;-4.27;68.08;99883.91;5051978;28;20587;-74
2023/02/09 01:19:25;;;;;;;22.45;14.00;;;;;;;-4.04;66.81;99881.44;5052526;28;20024;-74
2023/02/09 01:21:52;;;;;;;17.83;13.20;;;;;;;-4.17;67.16;99881.47;5053845;28;20495;-75
2023/02/09 01:24:18;;;;;;;18.30;13.32;;;;;;;-4.12;66.69;99895.13;5069109;28;20036;-75
2023/02/09 01:26:43;;;;;;;20.42;13.63;;;;;;;-4.15;67.53;99894.53;5053634;28;20041;-74
2023/02/09 01:29:12;;;;;;;21.02;13.40;;;;;;;-4.18;67.39;99896.41;5017871;28;20109;-75
2023/02/09 01:31:38;;;;;;;20.15;14.38;;;;;;;-4.65;68.94;99888.44;5031175;28;20052;-75
2023/02/09 01:34:03;;;;;;;21.00;14.80;;;;;;;-4.53;68.60;99881.47;5037805;28;20152;-75
2023/02/09 01:36:30;;;;;;;24.35;14.23;;;;;;;-4.50;69.07;99879.47;5048794;28;20037;-75
2023/02/09 01:38:57;;;;;;;20.27;14.35;;;;;;;-4.58;68.43;99880.97;5030630;28;20036;-74
2023/02/09 01:41:23;;;;;;;22.33;13.13;;;;;;;-4.61;68.73;99871.50;5030839;28;20032;-74
2023/02/09 01:44:11;;;;;;;19.77;13.68;;;;;;;-4.62;68.51;99869.00;5040933;28;20017;-75
2023/02/09 01:46:37;;;;;;;18.40;14.50;;;;;;;-4.66;68.57;99878.88;5039860;28;20048;-73
2023/02/09 01:49:12;;;;;;;18.33;14.63;;;;;;;-4.49;68.03;99870.63;5019414;28;20136;-73
2023/02/09 01:51:44;;;;;;;19.47;14.13;;;;;;;-4.52;67.87;99862.13;5041155;28;20376;-73
2023/02/09 01:54:16;;;;;;;20.30;12.18;;;;;;;-4.50;67.84;99871.56;5038847;28;20342;-73
2023/02/09 01:56:45;;;;;;;18.38;14.20;;;;;;;-4.44;67.53;99857.16;5059185;28;20072;-74
2023/02/09 01:59:11;;;;;;;21.08;14.60;;;;;;;-4.51;68.00;99851.50;5050248;28;20028;-73
2023/02/09 02:01:38;;;;;;;22.48;14.30;;;;;;;-4.57;68.05;99853.72;5031993;28;20053;-74
2023/02/09 02:04:04;;;;;;;20.73;14.95;;;;;;;-4.53;67.91;99853.41;5031883;28;20466;-73
2023/02/09 02:06:30;;;;;;;22.40;13.77;;;;;;;-4.56;67.87;99864.13;5015569;28;20040;-73
2023/02/09 02:08:58;;;;;;;24.13;14.27;;;;;;;-4.68;68.58;99859.75;5036642;28;20024;-74
2023/02/09 02:11:27;;;;;;;20.25;14.65;;;;;;;-4.62;68.02;99854.03;5043755;28;20037;-74
2023/02/09 02:13:52;;;;;;;21.52;15.00;;;;;;;-4.70;69.19;99856.38;5068002;28;20017;-72
2023/02/09 02:16:28;;;;;;;22.00;16.83;;;;;;;-4.72;69.47;99852.19;5051477;28;20127;-72
2023/02/09 02:19:31;;;;;;;21.02;14.75;;;;;;;-4.80;69.87;99849.22;5050864;28;20037;-72
2023/02/09 02:22:39;;;;;;;23.70;15.23;;;;;;;-4.79;69.27;99850.94;5068093;28;20106;-74
2023/02/09 02:25:12;;;;;;;19.65;15.50;;;;;;;-4.96;70.00;99844.22;5068044;28;20029;-74
2023/02/09 02:27:47;;;;;;;;;;;;;;;-5.05;70.22;99847.50;5052325;28;20060;-74
2023/02/09 02:30:25;;;;;;;22.27;14.35;;;;;;;-4.91;69.40;99844.75;5037540;28;19923;-75
2023/02/09 02:33:09;;;;;;;21.25;14.73;;;;;;;-4.96;69.92;99838.97;5025882;28;20549;-75
2023/02/09 02:35:58;;;;;;;18.67;14.70;;;;;;;-4.89;69.14;99829.72;5032545;28;20167;-75
2023/02/09 02:38:43;;;;;;;21.98;15.10;;;;;;;-4.95;69.76;99830.97;5031813;28;20037;-73
2023/02/09 02:41:14;;;;;;;21.70;16.13;;;;;;;-4.85;69.35;99830.34;5032887;28;20084;-74
2023/02/09 02:44:00;;;;;;;21.98;15.27;;;;;;;-4.96;69.81;99834.56;5058126;28;20063;-74
2023/02/09 02:46:41;;;;;;;24.38;15.43;;;;;;;-4.97;70.48;99832.06;5061240;28;20095;-76
2023/02/09 02:49:09;;;;;;;21.63;16.42;;;;;;;-4.97;70.02;99832.06;5061500;28;20115;-75
2023/02/09 02:51:38;;;;;;;21.83;15.13;;;;;;;-5.04;70.56;99825.56;5044251;28;20487;-74
2023/02/09 02:54:07;;;;;;;24.15;16.48;;;;;;;-4.92;70.43;99835.16;5044343;28;20090;-74
2023/02/09 02:56:40;;;;;;;21.83;16.60;;;;;;;-4.96;70.27;99838.97;5056099;28;20025;-74
2023/02/09 02:59:09;;;;;;;20.80;15.40;;;;;;;-4.91;70.56;99836.88;5053237;28;20044;-75
2023/02/09 03:01:40;;;;;;;24.10;15.65;;;;;;;-5.04;70.73;99829.00;5030982;28;20057;-74
2023/02/09 03:04:06;;;;;;;23.63;16.95;;;;;;;-5.04;70.33;99828.19;5040922;28;20034;-73
2023/02/09 03:06:32;;;;;;;27.05;15.35;;;;;;;-5.03;70.36;99827.22;5011130;28;20365;-75
2023/02/09 03:08:58;;;;;;;26.20;18.08;;;;;;;-5.06;70.65;99827.41;5058317;28;20061;-74
2023/02/09 03:11:33;;;;;;;24.58;15.55;;;;;;;-5.16;70.90;99831.63;5030647;28;20506;-74
2023/02/09 03:14:50;;;;;;;24.02;16.70;;;;;;;-5.14;70.79;99835.00;5053370;28;20403;-75
2023/02/09 03:17:18;;;;;;;21.55;15.80;;;;;;;-5.20;71.06;99831.00;5030317;28;20056;-74
2023/02/09 03:19:54;;;;;;;23.73;15.32;;;;;;;-5.27;70.75;99823.63;5031727;28;20033;-73
2023/02/09 03:22:30;;;;;;;23.17;15.80;;;;;;;-5.20;70.97;99824.91;5055517;28;20044;-74
2023/02/09 03:24:55;;;;;;;;;;;;;;;-5.23;70.80;99822.50;5037516;28;20079;-74
2023/02/09 03:27:24;;;;;;;20.60;15.83;;;;;;;-5.08;70.62;99824.06;5039959;28;19913;-74
2023/02/09 03:29:53;;;;;;;22.92;15.50;;;;;;;-5.22;70.89;99811.03;5047253;28;20458;-73
2023/02/09 03:32:18;;;;;;;22.30;15.38;;;;;;;-5.32;71.15;99810.00;5039795;28;20060;-74
2023/02/09 03:34:44;;;;;;;26.30;17.15;;;;;;;-5.15;70.89;99813.16;5046758;28;20443;-73
2023/02/09 03:37:10;;;;;;;23.48;14.65;;;;;;;-5.32;70.78;99825.75;5046075;28;20040;-73
2023/02/09 03:39:35;;;;;;;24.35;14.93;;;;;;;-5.30;70.88;99803.72;5030050;28;20036;-72
2023/02/09 03:42:01;;;;;;;22.38;16.73;;;;;;;-5.27;70.87;99810.50;5046775;28;20035;-72
2023/02/09 03:44:26;;;;;;;21.60;16.42;;;;;;;-5.41;71.25;99810.66;5046651;28;20577;-72
2023/02/09 03:46:54;;;;;;;22.50;15.38;;;;;;;-5.28;70.32;99814.94;5030624;28;20035;-72
2023/02/09 03:49:19;;;;;;;23.58;17.00;;;;;;;-5.30;70.83;99813.38;5029875;28;20488;-72
2023/02/09 03:51:44;;;;;;;21.60;17.00;;;;;;;-5.39;70.43;99803.50;5046735;28;20029;-72
2023/02/09 03:54:10;;;;;;;25.08;14.02;;;;;;;-5.45;70.79;99817.88;5046508;28;20061;-72
2023/02/09 03:56:36;;;;;;;23.00;16.88;;;;;;;-5.36;70.29;99803.28;5046819;28;20049;-72
2023/02/09 03:59:03;;;;;;;22.02;16.80;;;;;;;-5.36;70.52;99809.38;5045682;28;20038;-73
2023/02/09 04:01:28;;;;;;;23.10;17.77;;;;;;;-5.24;70.14;99810.31;5021140;28;20049;-73
2023/02/09 04:03:53;;;;;;;22.67;14.43;;;;;;;-5.36;70.32;99808.53;5033466;28;20060;-74
2023/02/09 04:06:19;;;;;;;23.92;17.73;;;;;;;-5.46;70.47;99812.75;5040799;28;20029;-73
2023/02/09 04:08:44;;;;;;;23.45;15.35;;;;;;;-5.67;71.48;99810.59;5045829;28;20120;-73
2023/02/09 04:11:10;;;;;;;25.85;16.98;;;;;;;-5.52;70.82;99818.38;5031157;28;20025;-73
2023/02/09 04:13:35;;;;;;;23.92;15.23;;;;;;;-5.54;70.86;99815.88;5029805;28;20060;-73
2023/02/09 04:16:00;;;;;;;24.83;16.63;;;;;;;-5.59;71.00;99807.47;5046342;28;20084;-73
2023/02/09 04:18:26;;;;;;;25.70;18.35;;;;;;;-5.53;70.55;99812.28;5062090;28;20029;-72
2023/02/09 04:20:51;;;;;;;22.75;14.88;;;;;;;-5.62;70.82;99816.38;5066349;28;20398;-73
2023/02/09 04:23:17;;;;;;;24.27;16.98;;;;;;;-5.55;70.82;99829.94;5050676;28;20128;-72
2023/02/09 04:25:42;;;;;;;23.55;17.25;;;;;;;-5.81;71.77;99821.19;5066427;28;20512;-73
2023/02/09 04:28:08;;;;;;;24.67;17.42;;;;;;;-5.63;70.76;99822.59;5033874;28;20118;-72
2023/02/09 04:30:33;;;;;;;23.90;17.45;;;;;;;-5.74;71.35;99819.81;5031065;28;20040;-71
2023/02/09 04:33:00;;;;;;;24.27;14.82;;;;;;;-6.06;72.83;99823.78;5045986;28;20379;-72
2023/02/09 04:35:26;;;;;;;21.40;17.10;;;;;;;-5.95;73.25;99831.78;5046170;28;20055;-72
2023/02/09 04:37:51;;;;;;;24.45;12.80;;;;;;;-6.10;73.59;99830.16;5030091;28;20064;-73
2023/02/09 04:40:16;;;;;;;23.02;15.80;;;;;;;-5.74;72.30;99814.59;5010182;28;20032;-74
2023/02/09 04:42:45;;;;;;;25.45;16.25;;;;;;;-5.84;72.60;99821.41;5041628;28;20109;-73
2023/02/09 04:45:11;;;;;;;27.40;13.60;;;;;;;-5.87;71.91;99811.13;5029713;28;20084;-74
2023/02/09 04:47:36;;;;;;;25.63;16.55;;;;;;;-5.91;71.85;99812.28;5028906;28;20435;-73
2023/02/09 04:50:01;;;;;;;27.08;15.38;;;;;;;-5.95;72.06;99816.03;5046151;28;20026;-74
2023/02/09 04:52:27;;;;;;;23.58;16.70;;;;;;;-5.96;71.62;99806.50;5046028;28;20380;-73
2023/02/09 04:54:52;;;;;;;22.20;16.85;;;;;;;-6.17;72.39;99810.53;5030702;28;20021;-73
2023/02/09 05:00:02;;;;;;;22.05;17.35;;;;;;;-5.83;71.85;99804.72;5043551;28;20053;-73
2023/02/09 05:02:28;;;;;;;23.13;15.52;;;;;;;-5.72;71.75;99811.88;5045846;28;20040;-72
2023/02/09 05:04:53;;;;;;;27.30;14.32;;;;;;;-6.02;72.42;99808.69;5030471;28;20108;-74
2023/02/09 05:07:19;;;;;;;26.35;17.30;;;;;;;-5.81;71.75;99810.69;5029796;28;20026;-73
2023/02/09 05:09:44;;;;;;;25.95;15.70;;;;;;;-5.81;71.47;99802.81;5045803;28;20649;-74
2023/02/09 05:12:09;;;;;;;24.25;16.95;;;;;;;-5.75;71.40;99801.56;5029159;28;20036;-74
2023/02/09 05:14:35;;;;;;;24.77;14.55;;;;;;;-6.00;72.21;99794.56;5049214;28;20033;-74
2023/02/09 05:17:01;;;;;;;22.90;17.83;;;;;;;-6.15;72.84;99805.19;5032661;28;20488;-75
2023/02/09 05:19:26;;;;;;;24.85;17.02;;;;;;;-5.96;71.63;99798.63;5027516;28;20044;-76
2023/02/09 05:21:52;;;;;;;25.83;17.23;;;;;;;-5.95;71.54;99799.50;5036170;28;20029;-75
2023/02/09 05:24:17;;;;;;;29.05;21.73;;;;;;;-5.86;71.61;99804.94;5052391;28;20152;-75
2023/02/09 05:26:42;;;;;;;29.35;20.92;;;;;;;-6.02;71.78;99792.97;5053434;28;20021;-74
2023/02/09 05:29:08;;;;;;;28.10;19.00;;;;;;;-5.93;71.20;99798.44;5051709;28;20104;-74
2023/02/09 05:31:33;;;;;;;29.50;17.13;;;;;;;-6.00;71.06;99786.69;5052522;28;20029;-76
2023/02/09 05:33:59;;;;;;;31.90;19.83;;;;;;;-5.93;71.81;99782.72;5053657;28;20143;-76
2023/02/09 05:36:25;;;;;;;27.77;20.25;;;;;;;-5.96;71.85;99782.91;5035472;28;20124;-75
2023/02/09 05:38:50;;;;;;;30.85;19.80;;;;;;;-5.88;71.93;99785.84;5052727;28;20120;-75
2023/02/09 05:42:13;;;;;;;33.40;20.30;;;;;;;-5.78;71.07;99779.00;5069075;28;20108;-75
2023/02/09 05:44:02;;;;;;;27.27;19.55;;;;;;;-5.77;71.25;99788.56;5053429;28;20055;-75
2023/02/09 05:46:27;;;;;;;28.33;19.15;;;;;;;-5.63;70.65;99785.88;5052088;28;20479;-75
2023/02/09 05:48:53;;;;;;;24.95;19.05;;;;;;;-5.58;71.03;99792.56;5067988;28;20033;-76
2023/02/09 05:51:18;;;;;;;24.75;16.27;;;;;;;-5.72;70.50;99791.72;5051888;28;20032;-75
2023/02/09 05:53:44;;;;;;;28.25;17.45;;;;;;;-5.56;70.78;99795.94;5053384;28;20406;-76
2023/02/09 05:56:09;;;;;;;28.27;16.58;;;;;;;-5.47;69.92;99784.81;5029271;28;20152;-77
2023/02/09 05:58:34;;;;;;;25.55;18.52;;;;;;;-5.44;70.10;99784.59;5057351;28;20060;-74
2023/02/09 06:01:00;;;;;;;25.25;18.55;;;;;;;-5.48;70.17;99783.16;5049074;28;20085;-76
2023/02/09 06:03:25;;;;;;;26.27;16.85;;;;;;;-5.43;70.41;99786.25;5031888;28;20049;-75
2023/02/09 06:05:50;;;;;;;25.13;15.00;;;;;;;-5.42;70.06;99788.81;5049410;28;20041;-73
2023/02/09 06:08:16;;;;;;;27.13;17.45;;;;;;;-5.60;70.28;99790.88;5047622;28;20029;-76
2023/02/09 06:10:41;;;;;;;24.48;15.77;;;;;;;-5.57;70.52;99791.63;5048323;28;20498;-75
2023/02/09 06:13:07;;;;;;;27.33;18.98;;;;;;;-5.48;70.14;99801.50;5034764;28;20037;-72
2023/02/09 06:15:32;;;;;;;24.10;17.83;;;;;;;-5.45;69.87;99804.75;5048812;28;20029;-73
2023/02/09 06:17:57;;;;;;;24.67;17.40;;;;;;;-5.47;70.11;99805.81;5047500;28;20033;-75
2023/02/09 06:20:23;;;;;;;22.67;18.73;;;;;;;-5.62;70.35;99808.50;5028321;28;20034;-74
2023/02/09 06:22:48;;;;;;;29.00;14.60;;;;;;;-5.61;70.36;99815.47;5037346;28;20117;-75
2023/02/09 06:25:13;;;;;;;25.55;13.45;;;;;;;-5.57;69.90;99829.19;5013532;28;20109;-75
2023/02/09 06:27:39;;;;;;;22.55;17.77;;;;;;;-5.65;69.87;99824.44;5030791;28;20038;-75
2023/02/09 06:30:05;;;;;;;25.20;13.77;;;;;;;-5.67;70.00;99831.59;5038477;28;20040;-74
2023/02/09 06:32:30;;;;;;;26.45;14.50;;;;;;;-5.54;70.27;99833.41;5052150;28;20041;-74
2023/02/09 06:34:56;;;;;;;25.85;13.27;;;;;;;-5.52;70.01;99829.72;5054147;28;20028;-74
2023/02/09 06:37:21;;;;;;;23.80;14.10;;;;;;;-5.57;69.44;99836.22;5052975;28;20465;-74
2023/02/09 06:39:46;;;;;;;24.77;13.25;;;;;;;-5.69;69.87;99828.22;5070634;28;20108;-74
2023/02/09 06:42:12;;;;;;;25.13;15.82;;;;;;;-5.64;70.61;99831.41;5059610;28;20025;-74
2023/02/09 06:44:37;;;;;;;28.67;14.07;;;;;;;-5.74;69.67;99830.31;5052324;28;20434;-74
2023/02/09 06:47:03;;;;;;;25.90;14.02;;;;;;;-5.76;70.34;99826.13;5061726;28;20111;-75
2023/02/09 06:49:28;;;;;;;24.35;14.25;;;;;;;-5.74;70.74;99840.81;5041416;28;20021;-73
2023/02/09 06:51:54;;;;;;;24.88;13.88;;;;;;;-5.80;70.44;99832.50;5043018;28;20083;-75
2023/02/09 06:54:19;;;;;;;24.23;14.50;;;;;;;-5.77;70.75;99827.94;5019392;28;20036;-74
2023/02/09 06:56:45;;;;;;;23.02;13.68;;;;;;;-6.02;71.20;99840.16;5040363;28;20056;-74
2023/02/09 06:59:10;;;;;;;25.60;14.30;;;;;;;-5.93;70.91;99831.69;5046602;28;20046;-74
2023/02/09 07:01:36;;;;;;;27.30;14.32;;;;;;;-5.84;71.13;99850.25;5019683;28;20048;-74
2023/02/09 07:04:01;;;;;;;25.00;13.93;;;;;;;-5.73;71.29;99841.66;5042253;28;20112;-74
2023/02/09 07:06:27;;;;;;;23.40;14.27;;;;;;;-5.65;70.42;99845.44;5025151;28;20039;-74
2023/02/09 07:08:52;;;;;;;25.10;13.57;;;;;;;-5.72;70.42;99844.16;5020321;28;20036;-76
2023/02/09 07:11:18;;;;;;;23.25;13.82;;;;;;;-5.57;69.97;99844.09;5039845;28;20547;-74
2023/02/09 07:13:44;;;;;;;28.67;17.73;;;;;;;-5.55;69.93;99850.09;5034947;28;20532;-74
2023/02/09 07:16:10;;;;;;;24.38;18.50;;;;;;;-5.68;70.34;99845.66;5023037;28;20040;-74
2023/02/09 07:18:36;;;;;;;25.73;17.73;;;;;;;-5.71;70.37;99851.09;5017557;28;20025;-74
2023/02/09 07:21:07;;;;;;;24.20;18.08;;;;;;;-5.80;70.46;99862.22;5039640;28;20150;-74
2023/02/09 07:23:34;;;;;;;24.42;13.50;;;;;;;-5.78;70.90;99862.09;5029762;28;20040;-74
2023/02/09 07:26:09;;;;;;;29.65;14.95;;;;;;;-5.85;71.85;99855.59;5030365;28;20072;-74
2023/02/09 07:28:35;;;;;;;26.85;21.33;;;;;;;-5.79;71.70;99845.53;5026860;28;20502;-74
2023/02/09 07:31:03;;;;;;;26.05;13.85;;;;;;;-5.73;72.22;99847.75;5036415;28;20483;-74
2023/02/09 07:33:28;;;;;;;33.42;18.02;;;;;;;-5.47;71.23;99847.78;5043967;28;20099;-74
2023/02/09 07:35:54;;;;;;;32.35;17.02;;;;;;;-5.30;70.43;99850.13;5046143;28;20488;-74
2023/02/09 07:38:19;;;;;;;33.42;15.95;;;;;;;-5.27;69.84;99855.13;5056195;28;20044;-75
2023/02/09 07:40:45;;;;;;;25.58;14.80;;;;;;;-5.01;68.58;99860.31;5047216;28;20033;-74
2023/02/09 07:43:12;;;;;;;35.47;17.88;;;;;;;-5.26;70.48;99862.09;5030149;28;20127;-73
2023/02/09 07:45:38;;;;;;;37.70;19.70;;;;;;;-5.51;72.35;99862.06;5013404;28;20160;-75
2023/02/09 07:48:03;;;;;;;39.05;20.50;;;;;;;-5.48;72.43;99859.25;5029149;28;20068;-75
2023/02/09 07:50:28;;;;;;;37.22;19.42;;;;;;;-5.42;71.80;99862.28;5029896;28;20029;-73
2023/02/09 07:52:54;;;;;;;36.33;19.40;;;;;;;-5.19;71.54;99858.09;5046643;28;20116;-75
2023/02/09 07:55:20;;;;;;;36.30;19.85;;;;;;;-5.07;71.16;99857.25;5047598;28;20064;-75
2023/02/09 07:57:45;;;;;;;32.85;19.50;;;;;;;-5.01;71.07;99862.06;5036851;28;20033;-75
2023/02/09 08:00:11;;;;;;;34.33;18.17;;;;;;;-4.95;71.96;99864.31;5029476;28;20025;-74
2023/02/09 08:02:40;;;;;;;35.20;17.50;;;;;;;-4.79;71.43;99862.28;5028972;28;20180;-75
2023/02/09 08:05:37;;;;;;;31.38;15.68;;;;;;;-4.72;72.09;99867.94;5030194;28;20026;-75
2023/02/09 08:08:02;;;;;;;;;;;;;;;-4.62;72.44;99864.56;5023288;28;20084;-74
2023/02/09 08:10:27;;;;;;;30.75;18.00;;;;;;;-4.58;73.05;99860.78;5049715;28;20358;-74
2023/02/09 08:13:01;;;;;;;32.20;17.10;;;;;;;-4.60;73.85;99859.22;5030201;28;20037;-74
2023/02/09 08:15:37;;;;;;;29.58;17.30;;;;;;;-4.38;72.61;99862.81;5035300;28;20037;-74
2023/02/09 08:18:09;;;;;;;29.10;16.30;;;;;;;-4.13;70.90;99858.44;5029597;28;20081;-74
2023/02/09 08:20:34;;;;;;;26.15;16.13;;;;;;;-4.11;69.70;99846.00;5028333;28;20030;-75
2023/02/09 08:23:07;;;;;;;25.98;14.05;;;;;;;-3.87;67.97;99842.41;5026942;28;20022;-72
2023/02/09 08:25:33;;;;;;;21.52;12.93;;;;;;;-3.85;66.58;99847.56;5061398;28;20047;-75
2023/02/09 08:28:00;;;;;;;28.63;13.10;;;;;;;-3.35;65.45;99851.66;5045875;28;20475;-74
2023/02/09 08:30:25;;;;;;;46.05;15.50;;;;;;;-3.50;65.78;99851.03;5029932;28;20065;-74
2023/02/09 08:32:50;;;;;;;21.70;12.02;;;;;;;-3.39;64.52;99851.06;5049858;28;20299;-74
2023/02/09 08:35:16;;;;;;;20.00;12.30;;;;;;;-3.34;64.36;99846.31;5024341;28;20033;-74
2023/02/09 08:37:41;;;;;;;19.10;12.05;;;;;;;-3.36;64.27;99834.22;5050187;28;20027;-74
2023/02/09 08:40:07;;;;;;;24.42;12.20;;;;;;;-3.29;63.99;99838.06;5029489;28;20426;-74
2023/02/09 08:42:33;;;;;;;17.63;11.00;;;;;;;-3.17;62.79;99821.28;5046317;28;20025;-73
2023/02/09 08:44:58;;;;;;;17.63;14.05;;;;;;;-3.12;63.33;99820.00;5046586;28;20044;-73
2023/02/09 08:47:24;;;;;;;17.90;11.95;;;;;;;-3.07;63.47;99825.75;5028745;28;20018;-74
2023/02/09 08:49:49;;;;;;;18.38;11.10;;;;;;;-2.98;62.56;99824.19;5050199;28;20112;-74
2023/02/09 08:52:15;;;;;;;17.85;11.15;;;;;;;-2.80;61.98;99825.38;5032220;28;20079;-74
2023/02/09 08:54:41;;;;;;;18.42;11.15;;;;;;;-2.79;61.52;99827.06;5050038;28;20044;-75
2023/02/09 08:57:06;;;;;;;15.48;12.60;;;;;;;-2.82;61.92;99817.59;5033797;28;20441;-74
2023/02/09 08:59:32;;;;;;;14.88;9.80;;;;;;;-2.72;60.12;99827.41;5033488;28;20037;-74
2023/02/09 09:01:58;;;;;;;14.48;9.07;;;;;;;-2.50;59.81;99835.31;5030973;28;20485;-74
2023/02/09 09:04:23;;;;;;;12.18;10.85;;;;;;;-2.54;59.11;99828.59;5029180;28;20137;-75
2023/02/09 09:06:48;;;;;;;15.68;11.75;;;;;;;-2.42;59.65;99819.69;5029918;28;20037;-74
2023/02/09 09:09:14;;;;;;;15.82;9.07;;;;;;;-2.31;59.11;99827.63;5057503;28;20497;-74
2023/02/09 09:11:39;;;;;;;14.20;9.73;;;;;;;-2.27;60.00;99819.34;5069581;28;20108;-75
2023/02/09 09:14:05;;;;;;;18.08;9.13;;;;;;;-2.34;59.53;99827.84;5034655;28;20041;-73
2023/02/09 09:16:30;;;;;;;12.25;8.70;;;;;;;-2.25;58.77;99835.03;5050291;28;20029;-73
2023/02/09 09:18:56;;;;;;;12.93;8.10;;;;;;;-2.25;58.10;99821.84;5045984;28;20036;-74
2023/02/09 09:21:21;;;;;;;15.48;9.88;;;;;;;-2.28;58.36;99825.56;5031849;28;20040;-73
2023/02/09 09:23:47;;;;;;;17.33;10.15;;;;;;;-2.21;58.04;99825.91;5049238;28;20120;-73
2023/02/09 09:26:13;;;;;;;14.95;11.93;;;;;;;-2.16;58.20;99818.44;5033471;28;20028;-73
2023/02/09 09:28:39;;;;;;;12.95;8.52;;;;;;;-2.18;57.74;99823.03;5032621;28;20403;-74
2023/02/09 09:31:10;;;;;;;11.93;10.15;;;;;;;-2.18;57.66;99817.75;5031696;28;20029;-73
2023/02/09 09:33:36;;;;;;;11.57;10.23;;;;;;;-2.00;56.96;99824.16;5049208;28;20037;-74
2023/02/09 09:36:02;;;;;;;12.98;8.70;;;;;;;-2.05;57.78;99818.41;5031789;28;20029;-73
2023/02/09 09:38:28;;;;;;;12.80;10.45;;;;;;;-2.05;58.42;99823.69;4999020;28;20408;-74
2023/02/09 09:40:54;;;;;;;11.65;10.32;;;;;;;-1.96;57.36;99817.66;5049277;28;20021;-73
2023/02/09 09:43:26;;;;;;;40.28;14.38;;;;;;;-1.86;57.55;99823.88;5049265;28;20037;-73
2023/02/09 09:45:51;;;;;;;13.32;10.60;;;;;;;-1.88;57.58;99815.25;5015631;28;20037;-73
2023/02/09 09:48:39;;;;;;;11.25;8.85;;;;;;;-1.91;57.54;99825.22;5031995;28;20471;-74
2023/02/09 09:51:11;;;;;;;16.42;9.98;;;;;;;-1.85;57.98;99836.13;5035472;28;20475;-74
2023/02/09 09:53:38;;;;;;;14.27;9.90;;;;;;;-1.74;56.63;99836.06;5050877;28;20372;-73
2023/02/09 09:56:05;;;;;;;11.48;9.75;;;;;;;-1.72;57.08;99841.19;5068199;28;20029;-74
2023/02/09 09:58:32;;;;;;;11.85;9.50;;;;;;;-1.87;57.16;99838.03;5050573;28;20430;-73
2023/02/09 10:00:57;;;;;;;11.65;9.65;;;;;;;-1.86;57.52;99829.16;5052981;28;20417;-73
2023/02/09 10:03:23;;;;;;;12.93;9.13;;;;;;;-1.67;56.67;99834.59;5045038;28;20040;-74
2023/02/09 10:05:51;;;;;;;11.65;10.05;;;;;;;-1.55;56.38;99836.22;5051999;28;20025;-73
2023/02/09 10:08:31;;;;;;;20.88;11.55;;;;;;;-1.46;58.01;99835.44;5020679;28;20026;-73
2023/02/09 10:11:03;;;;;;;10.82;9.50;;;;;;;-1.52;57.83;99833.28;5036862;28;20625;-74
2023/02/09 10:13:37;;;;;;;13.18;10.77;;;;;;;-1.52;57.40;99848.34;5064198;28;20067;-74
2023/02/09 10:16:03;;;;;;;12.45;10.35;;;;;;;-1.41;56.15;99838.53;5030623;28;20037;-74
2023/02/09 10:18:29;;;;;;;15.77;12.05;;;;;;;-1.30;56.29;99847.34;5030998;28;20044;-74
2023/02/09 10:21:05;;;;;;;21.20;12.73;;;;;;;-1.36;57.13;99843.44;5031427;28;20095;-74
2023/02/09 10:23:41;;;;;;;13.85;10.75;;;;;;;-1.29;55.66;99833.19;5031396;28;20407;-74
2023/02/09 10:26:06;;;;;;;14.02;10.55;;;;;;;-1.38;55.82;99835.63;5032373;28;20029;-74
2023/02/09 10:28:37;;;;;;;16.20;11.40;;;;;;;-1.35;57.11;99844.28;5030470;28;20017;-74
2023/02/09 10:31:16;;;;;;;16.20;12.80;;;;;;;-1.22;55.98;99840.47;5032064;28;20061;-74
2023/02/09 10:33:43;;;;;;;13.55;11.00;;;;;;;-1.41;56.23;99825.34;5030635;28;20056;-74
2023/02/09 10:36:25;;;;;;;18.02;11.88;;;;;;;-1.38;56.57;99832.97;5014304;28;20021;-74
2023/02/09 10:38:52;;;;;;;13.95;11.23;;;;;;;-1.14;56.29;99837.16;5030298;28;20053;-74
2023/02/09 10:41:18;;;;;;;16.17;10.80;;;;;;;-1.33;56.25;99827.31;5046877;28;20401;-74
2023/02/09 10:43:50;;;;;;;13.98;10.93;;;;;;;-1.35;55.63;99823.16;5046475;28;20095;-73
2023/02/09 10:46:17;;;;;;;12.93;10.55;;;;;;;-1.16;55.50;99828.53;5028937;28;20032;-74
2023/02/09 10:48:44;;;;;;;17.35;11.40;;;;;;;-1.26;54.01;99814.44;5031261;28;20046;-75
2023/02/09 10:51:27;;;;;;;14.80;11.60;;;;;;;-1.14;55.72;99826.59;5051104;28;20033;-75
2023/02/09 10:54:03;;;;;;;14.30;11.82;;;;;;;-1.06;54.92;99829.44;5031882;28;20103;-74
2023/02/09 10:56:34;;;;;;;15.35;12.50;;;;;;;-0.96;54.46;99825.03;5030593;28;20037;-74
2023/02/09 10:59:03;;;;;;;14.68;12.00;;;;;;;-1.11;54.78;99826.34;5028914;28;20041;-74
2023/02/09 11:01:32;;;;;;;16.90;11.48;;;;;;;-0.95;55.61;99821.41;5030657;28;20018;-74
2023/02/09 11:04:10;;;;;;;15.13;12.80;;;;;;;-0.92;54.98;99821.16;5030066;28;20514;-74
2023/02/09 11:06:47;;;;;;;15.35;11.65;;;;;;;-0.80;55.37;99812.16;5049278;28;20078;-74
2023/02/09 11:09:18;;;;;;;20.58;11.82;;;;;;;-0.89;54.31;99805.03;5026316;28;20040;-74
2023/02/09 11:11:43;;;;;;;20.42;12.32;;;;;;;-0.67;54.49;99804.84;5031105;28;20076;-74
2023/02/09 11:14:12;;;;;;;15.02;12.15;;;;;;;-0.71;55.62;99806.91;5047704;28;20100;-74
2023/02/09 11:16:40;;;;;;;14.18;11.40;;;;;;;-0.60;55.50;99795.38;5062212;28;20458;-74
2023/02/09 11:19:17;;;;;;;12.75;11.02;;;;;;;-0.54;53.50;99786.94;5051493;28;20040;-74
2023/02/09 11:21:57;;;;;;;13.10;11.70;;;;;;;-0.58;55.21;99788.16;5067498;28;20080;-74
2023/02/09 11:24:37;;;;;;;13.20;10.98;;;;;;;-0.67;54.36;99783.66;5040763;28;20044;-75
2023/02/09 11:27:16;;;;;;;15.45;12.63;;;;;;;-0.60;55.08;99781.31;5016910;28;20068;-74